Time;durP1;ratioP1;P1;durP2;ratioP2;P2;SDS_P1;SDS_P2;PMS_P1;PMS_P2;Temp;Humidity;BMP_temperature;BMP_pressure;BME280_temperature;BME280_humidity;BME280_pressure;Samples;Min_cycle;Max_cycle;Signal;HPM_P1;HPM_P2
2023/09/29 00:00:31;;;;;;;14.70;4.82;;;19.80;99.90;;;;;;5104421;28;20590;-80
2023/09/29 00:02:57;;;;;;;12.73;5.10;;;19.90;99.90;;;;;;5076309;28;20039;-76
2023/09/29 00:05:23;;;;;;;14.15;5.22;;;19.80;99.90;;;;;;5106600;28;20674;-77
2023/09/29 00:07:52;;;;;;;13.48;4.55;;;19.90;99.90;;;;;;5107731;28;20042;-77
2023/09/29 00:10:20;;;;;;;12.73;5.32;;;19.80;99.90;;;;;;5079320;28;20039;-75
2023/09/29 00:12:48;;;;;;;13.80;4.90;;;19.90;99.90;;;;;;5097905;28;20040;-75
2023/09/29 00:15:15;;;;;;;12.43;5.13;;;19.90;99.90;;;;;;5078637;28;20447;-75
2023/09/29 00:17:41;;;;;;;12.55;4.57;;;19.90;99.90;;;;;;5096959;28;20030;-78
2023/09/29 00:20:23;;;;;;;18.05;5.47;;;19.90;99.90;;;;;;5107443;28;20031;-78
2023/09/29 00:22:59;;;;;;;11.27;5.25;;;19.90;99.90;;;;;;5103978;28;20067;-78
2023/09/29 00:25:26;;;;;;;11.57;4.45;;;19.90;99.90;;;;;;5090626;28;20047;-76
2023/09/29 00:27:53;;;;;;;14.55;5.25;;;19.90;99.90;;;;;;5046123;28;20158;-76
2023/09/29 00:30:19;;;;;;;12.35;5.40;;;19.90;99.90;;;;;;5097891;28;20039;-78
2023/09/29 00:32:49;;;;;;;14.30;5.50;;;19.90;99.90;;;;;;5072225;28;20032;-80
2023/09/29 00:35:27;;;;;;;12.55;4.78;;;19.90;99.90;;;;;;5098102;28;20067;-76
2023/09/29 00:37:58;;;;;;;12.15;4.93;;;19.90;99.90;;;;;;5101011;28;20054;-80
2023/09/29 00:40:25;;;;;;;14.27;4.72;;;19.90;99.90;;;;;;5087108;28;20040;-76
2023/09/29 00:42:52;;;;;;;11.05;4.68;;;19.90;99.90;;;;;;5079854;28;20043;-76
2023/09/29 00:45:26;;;;;;;8.90;4.18;;;19.90;99.90;;;;;;5102012;28;20093;-76
2023/09/29 00:47:56;;;;;;;14.45;5.15;;;19.90;99.90;;;;;;5080608;28;20051;-77
2023/09/29 00:50:23;;;;;;;14.32;5.15;;;20.00;99.90;;;;;;5069605;28;20044;-76
2023/09/29 00:52:54;;;;;;;15.27;5.05;;;19.90;99.90;;;;;;5101206;28;20103;-78
2023/09/29 00:55:26;;;;;;;16.15;4.88;;;20.00;99.90;;;;;;5082920;28;20040;-76
2023/09/29 00:57:52;;;;;;;15.50;5.28;;;20.00;99.90;;;;;;5099492;28;20494;-80
2023/09/29 01:00:30;;;;;;;12.95;4.50;;;20.00;99.90;;;;;;5082467;28;20036;-81
2023/09/29 01:02:57;;;;;;;14.93;5.15;;;20.00;99.90;;;;;;5073116;28;20043;-76
2023/09/29 01:05:23;;;;;;;15.23;5.13;;;20.00;99.90;;;;;;5091210;28;20035;-76
2023/09/29 01:07:51;;;;;;;15.05;5.20;;;20.00;99.90;;;;;;5096707;28;20039;-77
2023/09/29 01:10:20;;;;;;;14.32;4.78;;;19.90;99.90;;;;;;5077367;28;20047;-78
2023/09/29 01:12:46;;;;;;;11.27;4.88;;;19.90;99.90;;;;;;5089089;28;20427;-78
2023/09/29 01:15:15;;;;;;;13.20;4.78;;;20.00;99.90;;;;;;5075148;28;20556;-76
2023/09/29 01:17:44;;;;;;;9.48;4.60;;;19.90;99.90;;;;;;5100052;28;20036;-76
2023/09/29 01:20:34;;;;;;;14.43;4.93;;;19.90;99.90;;;;;;5082096;28;20047;-78
2023/09/29 01:23:05;;;;;;;15.10;5.07;;;19.90;99.90;;;;;;5074157;28;20043;-80
2023/09/29 01:25:31;;;;;;;12.68;5.15;;;19.80;99.90;;;;;;5080336;28;20039;-77
2023/09/29 01:27:58;;;;;;;14.05;4.80;;;19.90;99.90;;;;;;5092617;28;20099;-79
2023/09/29 01:30:25;;;;;;;14.48;4.78;;;19.90;99.90;;;;;;5093803;28;20036;-79
2023/09/29 01:32:54;;;;;;;12.50;5.00;;;19.80;99.90;;;;;;5079401;28;20036;-76
2023/09/29 01:35:27;;;;;;;17.10;4.97;;;19.80;99.90;;;;;;5099758;28;20145;-78
2023/09/29 01:37:55;;;;;;;16.02;5.65;;;19.80;99.90;;;;;;5076950;28;20476;-80
2023/09/29 01:40:21;;;;;;;16.73;5.53;;;19.80;99.90;;;;;;5094391;28;20043;-77
2023/09/29 01:42:49;;;;;;;16.48;5.25;;;19.80;99.90;;;;;;5086131;28;20043;-77
2023/09/29 01:45:15;;;;;;;15.88;5.55;;;19.80;99.90;;;;;;5097153;28;20425;-80
2023/09/29 01:47:43;;;;;;;15.27;4.97;;;19.80;99.90;;;;;;5090228;28;20079;-78
2023/09/29 01:50:10;;;;;;;15.20;5.28;;;19.80;99.90;;;;;;5084676;28;20043;-75
2023/09/29 01:52:39;;;;;;;11.20;4.18;;;19.80;99.90;;;;;;5106065;28;20650;-77
2023/09/29 01:55:14;;;;;;;17.38;5.78;;;19.80;99.90;;;;;;5101468;28;20044;-78
2023/09/29 01:57:43;;;;;;;14.45;5.25;;;19.90;99.90;;;;;;5082270;28;20077;-77
2023/09/29 02:00:14;;;;;;;12.32;4.78;;;19.90;99.90;;;;;;5104267;28;20031;-76
2023/09/29 02:02:49;;;;;;;16.30;5.55;;;19.90;99.90;;;;;;5092106;28;20082;-79
2023/09/29 02:05:18;;;;;;;14.77;5.60;;;19.90;99.90;;;;;;5075077;28;20549;-80
2023/09/29 02:07:44;;;;;;;18.45;5.20;;;19.90;99.90;;;;;;5079982;28;20032;-75
2023/09/29 02:10:10;;;;;;;16.85;5.28;;;19.90;99.90;;;;;;5098855;28;20047;-76
2023/09/29 02:12:46;;;;;;;14.73;5.15;;;19.90;99.90;;;;;;5078889;28;20063;-77
2023/09/29 02:15:16;;;;;;;15.77;6.28;;;19.90;99.90;;;;;;5103766;28;20044;-76
2023/09/29 02:17:42;;;;;;;11.02;4.30;;;19.90;99.90;;;;;;5108525;28;20040;-80
2023/09/29 02:20:13;;;;;;;12.25;4.82;;;19.90;99.90;;;;;;5104957;28;20040;-78
2023/09/29 02:22:39;;;;;;;13.10;4.97;;;19.90;99.90;;;;;;5078876;28;20036;-76
2023/09/29 02:25:06;;;;;;;10.95;4.90;;;19.90;99.90;;;;;;5102012;28;20539;-77
2023/09/29 02:27:32;;;;;;;12.80;4.65;;;19.90;99.90;;;;;;5072974;28;20068;-77
2023/09/29 02:29:58;;;;;;;12.90;5.03;;;19.90;99.90;;;;;;5070029;28;20647;-76
2023/09/29 02:32:24;;;;;;;16.73;5.07;;;20.00;99.90;;;;;;5097618;28;20043;-79
2023/09/29 02:34:50;;;;;;;16.17;5.20;;;20.00;99.90;;;;;;5103072;28;20087;-77
2023/09/29 02:37:15;;;;;;;15.32;5.45;;;20.00;99.90;;;;;;5105597;28;20638;-77
2023/09/29 02:39:41;;;;;;;11.43;4.85;;;20.00;99.90;;;;;;5090478;28;20497;-78
2023/09/29 02:42:07;;;;;;;18.42;5.47;;;20.00;99.90;;;;;;5067322;28;20044;-81
2023/09/29 02:44:33;;;;;;;11.75;5.55;;;20.00;99.90;;;;;;5078374;28;20439;-79
2023/09/29 02:47:00;;;;;;;14.55;5.63;;;20.00;99.90;;;;;;5071958;28;20031;-79
2023/09/29 02:49:30;;;;;;;12.88;4.85;;;19.90;99.90;;;;;;5093109;28;20028;-79
2023/09/29 02:51:55;;;;;;;18.63;5.50;;;19.90;99.90;;;;;;5100660;28;20372;-75
2023/09/29 02:54:21;;;;;;;11.35;5.05;;;19.90;99.90;;;;;;5090892;28;20042;-81
2023/09/29 02:56:47;;;;;;;16.05;5.57;;;20.00;99.90;;;;;;5097047;28;20047;-75
2023/09/29 02:59:12;;;;;;;14.10;4.97;;;20.00;99.90;;;;;;5091753;28;20067;-77
2023/09/29 03:01:39;;;;;;;14.02;5.25;;;19.90;99.90;;;;;;5095013;28;20480;-77
2023/09/29 03:04:05;;;;;;;14.65;5.32;;;20.00;99.90;;;;;;5094743;28;20078;-77
2023/09/29 03:06:32;;;;;;;11.85;4.75;;;20.00;99.90;;;;;;5096882;28;20498;-79
2023/09/29 03:08:59;;;;;;;11.63;4.65;;;20.00;99.90;;;;;;5075442;28;20484;-76
2023/09/29 03:11:25;;;;;;;11.90;4.85;;;20.00;99.90;;;;;;5081651;28;20403;-76
2023/09/29 03:13:54;;;;;;;12.20;5.05;;;20.00;99.90;;;;;;5081964;28;20235;-78
2023/09/29 03:16:21;;;;;;;11.27;4.57;;;20.10;99.90;;;;;;5100191;28;20046;-75
2023/09/29 03:18:47;;;;;;;14.98;5.30;;;20.00;99.90;;;;;;5074565;28;20512;-78
2023/09/29 03:21:13;;;;;;;10.30;4.32;;;20.10;99.90;;;;;;5090474;28;20046;-79
2023/09/29 03:23:39;;;;;;;15.60;5.43;;;20.10;99.90;;;;;;5108298;28;20414;-80
2023/09/29 03:26:05;;;;;;;13.48;4.60;;;20.10;99.90;;;;;;5102683;27;20111;-78
2023/09/29 03:28:34;;;;;;;13.48;4.90;;;20.10;99.90;;;;;;5079389;28;20514;-75
2023/09/29 03:31:02;;;;;;;11.50;4.28;;;20.10;99.90;;;;;;5063972;28;20144;-75
2023/09/29 03:33:29;;;;;;;10.10;4.20;;;20.10;99.90;;;;;;5091053;28;20424;-78
2023/09/29 03:35:55;;;;;;;11.10;4.35;;;20.10;99.90;;;;;;5087981;28;20050;-76
2023/09/29 03:38:21;;;;;;;16.10;4.93;;;20.20;99.90;;;;;;5102422;28;20051;-77
2023/09/29 03:40:50;;;;;;;8.98;4.40;;;20.20;99.90;;;;;;5092330;28;20058;-75
2023/09/29 03:43:17;;;;;;;10.40;4.68;;;20.20;99.90;;;;;;5093336;28;20071;-79
2023/09/29 03:45:42;;;;;;;9.05;3.95;;;20.20;99.90;;;;;;5076387;28;20054;-79
2023/09/29 03:48:09;;;;;;;9.35;4.72;;;20.20;99.90;;;;;;5107622;28;20043;-77
2023/09/29 03:50:35;;;;;;;14.50;5.10;;;20.30;99.90;;;;;;5089779;28;20115;-77
2023/09/29 03:53:01;;;;;;;14.48;4.72;;;20.30;99.90;;;;;;5073011;28;20040;-78
2023/09/29 03:55:27;;;;;;;13.88;5.80;;;20.30;99.90;;;;;;5089476;28;20040;-80
2023/09/29 03:57:53;;;;;;;12.05;4.60;;;20.40;99.90;;;;;;5072512;28;20036;-76
2023/09/29 04:00:21;;;;;;;16.20;4.85;;;20.40;99.90;;;;;;5071890;28;20040;-77
2023/09/29 04:02:50;;;;;;;14.65;5.82;;;20.40;99.90;;;;;;5093462;28;20036;-75
2023/09/29 04:05:17;;;;;;;12.65;4.70;;;20.40;99.90;;;;;;5105034;28;20130;-76
2023/09/29 04:07:43;;;;;;;11.68;4.30;;;20.40;99.90;;;;;;5072950;28;20036;-74
2023/09/29 04:10:10;;;;;;;12.18;4.90;;;20.40;99.90;;;;;;5081815;28;20118;-77
2023/09/29 04:12:37;;;;;;;13.15;4.35;;;20.40;99.90;;;;;;5104601;28;20599;-76
2023/09/29 04:15:03;;;;;;;11.10;4.85;;;20.40;99.90;;;;;;5089574;28;20039;-77
2023/09/29 04:17:29;;;;;;;10.07;4.60;;;20.40;99.90;;;;;;5088856;28;20047;-79
2023/09/29 04:19:55;;;;;;;11.00;4.15;;;20.40;99.90;;;;;;5058727;28;20039;-78
2023/09/29 04:22:24;;;;;;;14.65;5.30;;;20.40;99.90;;;;;;5094689;28;20120;-78
2023/09/29 04:24:50;;;;;;;8.70;4.05;;;20.40;99.90;;;;;;5089229;28;20043;-76
2023/09/29 04:27:16;;;;;;;14.60;5.03;;;20.50;99.90;;;;;;5071968;28;20101;-77
2023/09/29 04:29:41;;;;;;;9.98;4.38;;;20.50;99.90;;;;;;5072381;28;20047;-80
2023/09/29 04:32:07;;;;;;;15.20;5.28;;;20.50;99.90;;;;;;5072197;28;20075;-78
2023/09/29 04:34:33;;;;;;;12.20;5.00;;;20.50;99.90;;;;;;5072269;28;20058;-78
2023/09/29 04:36:59;;;;;;;15.20;5.90;;;20.50;99.90;;;;;;5091232;28;20048;-79
2023/09/29 04:39:25;;;;;;;8.05;4.20;;;20.60;99.90;;;;;;5068017;28;20052;-78
2023/09/29 04:41:51;;;;;;;14.15;4.32;;;20.60;99.90;;;;;;5088886;28;20442;-77
2023/09/29 04:44:17;;;;;;;13.95;5.30;;;20.60;99.90;;;;;;5102794;28;20040;-80
2023/09/29 04:46:44;;;;;;;10.50;4.85;;;20.60;99.90;;;;;;5091068;28;20044;-80
2023/09/29 04:49:10;;;;;;;9.10;4.28;;;20.60;99.90;;;;;;5074676;28;20040;-79
2023/09/29 04:51:36;;;;;;;7.57;4.20;;;20.60;99.90;;;;;;5105464;28;20032;-79
2023/09/29 04:54:02;;;;;;;12.55;4.97;;;20.70;99.90;;;;;;5055680;28;20036;-75
2023/09/29 04:56:28;;;;;;;13.30;5.50;;;20.70;99.90;;;;;;5055244;28;20036;-78
2023/09/29 04:58:54;;;;;;;12.43;5.32;;;20.80;99.90;;;;;;5072043;28;20044;-76
2023/09/29 05:01:21;;;;;;;10.00;4.90;;;20.70;99.90;;;;;;5055187;28;20040;-81
2023/09/29 05:03:47;;;;;;;11.55;5.28;;;20.70;99.90;;;;;;5073328;28;20130;-78
2023/09/29 05:06:16;;;;;;;12.57;5.35;;;20.70;99.90;;;;;;5109051;28;20098;-75
2023/09/29 05:08:41;;;;;;;14.95;4.97;;;20.80;99.90;;;;;;5083837;28;20040;-76
2023/09/29 05:11:07;;;;;;;11.93;5.28;;;20.80;99.90;;;;;;5088619;28;20044;-76
2023/09/29 05:13:33;;;;;;;15.10;5.45;;;20.80;99.90;;;;;;5073247;28;20041;-76
2023/09/29 05:15:59;;;;;;;13.65;5.25;;;20.90;99.90;;;;;;5073206;28;20044;-80
2023/09/29 05:18:25;;;;;;;10.13;4.65;;;20.90;99.90;;;;;;5108703;28;20035;-81
2023/09/29 05:20:50;;;;;;;12.75;5.28;;;20.90;99.90;;;;;;5108888;28;20199;-75
2023/09/29 05:23:16;;;;;;;11.88;4.97;;;21.00;99.90;;;;;;5107007;28;20045;-76
2023/09/29 05:25:48;;;;;;;10.13;5.05;;;20.90;99.90;;;;;;5094872;28;20081;-75
2023/09/29 05:28:14;;;;;;;16.45;5.82;;;20.90;99.90;;;;;;5095456;28;20038;-79
2023/09/29 05:30:53;;;;;;;10.20;4.70;;;20.90;99.90;;;;;;5112750;28;20035;-78
2023/09/29 05:33:19;;;;;;;11.20;4.85;;;20.90;99.90;;;;;;5110206;28;20124;-79
2023/09/29 05:35:46;;;;;;;11.73;5.70;;;20.90;99.90;;;;;;5075702;28;20052;-77
2023/09/29 05:38:12;;;;;;;15.63;5.38;;;21.00;99.90;;;;;;5088474;28;20056;-79
2023/09/29 05:40:41;;;;;;;12.52;5.07;;;21.00;99.90;;;;;;5077213;28;20044;-80
2023/09/29 05:43:10;;;;;;;13.32;5.53;;;21.00;99.90;;;;;;5110446;28;20123;-75
2023/09/29 05:45:39;;;;;;;10.40;5.53;;;21.00;99.90;;;;;;5093690;28;20071;-77
2023/09/29 05:48:06;;;;;;;8.63;5.20;;;21.10;99.90;;;;;;5084046;28;20032;-79
2023/09/29 05:50:32;;;;;;;12.48;4.97;;;21.10;99.90;;;;;;5057254;28;20380;-77
2023/09/29 05:52:58;;;;;;;14.13;5.25;;;21.10;99.90;;;;;;5074037;28;20032;-77
2023/09/29 05:55:24;;;;;;;12.38;5.90;;;21.10;99.90;;;;;;5075205;28;20417;-75
2023/09/29 05:57:50;;;;;;;13.15;6.13;;;21.00;99.90;;;;;;5107778;28;20039;-76
2023/09/29 06:00:17;;;;;;;11.65;5.97;;;20.90;99.90;;;;;;5111281;28;20395;-77
2023/09/29 06:02:43;;;;;;;11.93;5.13;;;20.90;99.90;;;;;;5099565;28;20036;-76
2023/09/29 06:05:10;;;;;;;15.57;6.80;;;20.90;99.90;;;;;;5057675;28;20039;-78
2023/09/29 06:07:36;;;;;;;18.35;6.47;;;20.80;99.90;;;;;;5090810;28;20097;-75
2023/09/29 06:10:03;;;;;;;13.38;6.20;;;20.80;99.90;;;;;;5111732;28;20031;-78
2023/09/29 06:12:29;;;;;;;12.40;6.18;;;20.80;99.90;;;;;;5102891;28;20123;-74
2023/09/29 06:14:55;;;;;;;14.35;5.85;;;20.90;99.90;;;;;;5091066;28;20036;-79
2023/09/29 06:17:22;;;;;;;12.52;6.30;;;20.90;99.90;;;;;;5091242;28;20062;-76
2023/09/29 06:19:48;;;;;;;11.43;6.00;;;20.90;99.90;;;;;;5074808;28;20703;-76
2023/09/29 06:22:14;;;;;;;12.43;7.05;;;20.90;99.90;;;;;;5075700;28;20040;-77
2023/09/29 06:24:41;;;;;;;13.27;6.22;;;20.90;99.90;;;;;;5070107;28;20044;-77
2023/09/29 06:27:07;;;;;;;15.07;7.25;;;20.90;99.90;;;;;;5079623;28;20070;-78
2023/09/29 06:29:33;;;;;;;12.80;6.85;;;20.90;99.90;;;;;;5073999;28;20044;-72
2023/09/29 06:31:58;;;;;;;11.60;5.40;;;20.90;99.90;;;;;;5074277;28;20147;-73
2023/09/29 06:34:24;;;;;;;9.38;6.50;;;21.00;99.90;;;;;;5068046;28;20542;-78
2023/09/29 06:36:50;;;;;;;10.23;5.80;;;20.90;99.90;;;;;;5091947;28;20066;-73
2023/09/29 06:39:16;;;;;;;11.07;6.63;;;20.90;99.90;;;;;;5075862;28;20189;-80
2023/09/29 06:41:42;;;;;;;8.50;5.35;;;20.90;99.90;;;;;;5073811;28;20043;-75
2023/09/29 06:44:07;;;;;;;10.63;6.00;;;20.90;99.90;;;;;;5060629;28;20036;-75
2023/09/29 06:46:33;;;;;;;15.07;6.57;;;21.00;99.90;;;;;;5108103;28;20051;-77
2023/09/29 06:49:04;;;;;;;16.23;6.93;;;21.00;99.90;;;;;;5094236;28;20039;-75
2023/09/29 06:51:29;;;;;;;10.52;5.65;;;21.00;99.90;;;;;;5111474;28;20551;-74
2023/09/29 06:53:55;;;;;;;11.52;6.97;;;21.00;99.90;;;;;;5095530;28;20040;-75
2023/09/29 06:56:21;;;;;;;12.98;6.90;;;21.00;99.90;;;;;;5067146;28;20399;-75
2023/09/29 06:58:47;;;;;;;15.05;8.07;;;21.00;99.90;;;;;;5073566;28;20048;-76
2023/09/29 07:01:13;;;;;;;14.27;6.70;;;21.00;99.90;;;;;;5072723;28;20043;-77
2023/09/29 07:03:39;;;;;;;14.40;7.30;;;21.10;99.90;;;;;;5072630;28;20044;-75
2023/09/29 07:06:05;;;;;;;12.95;7.18;;;21.10;99.90;;;;;;5103398;28;20040;-76
2023/09/29 07:08:31;;;;;;;16.17;7.15;;;21.10;99.90;;;;;;5095514;28;20052;-76
2023/09/29 07:10:57;;;;;;;10.43;7.40;;;21.20;99.90;;;;;;5090483;28;20046;-75
2023/09/29 07:13:23;;;;;;;13.82;7.60;;;21.10;99.90;;;;;;5090105;28;20031;-76
2023/09/29 07:15:49;;;;;;;12.95;7.55;;;21.20;99.90;;;;;;5073223;28;20046;-72
2023/09/29 07:18:16;;;;;;;12.90;6.72;;;21.10;99.90;;;;;;5091846;28;20082;-78
2023/09/29 07:20:45;;;;;;;11.50;7.18;;;21.20;99.90;;;;;;5094549;28;20380;-76
2023/09/29 07:23:11;;;;;;;11.00;6.55;;;21.40;99.90;;;;;;5090874;28;20388;-75
2023/09/29 07:25:37;;;;;;;12.35;6.40;;;21.50;99.90;;;;;;5089835;28;20050;-78
2023/09/29 07:28:15;;;;;;;12.27;6.82;;;21.50;99.90;;;;;;5098652;28;20032;-76
2023/09/29 07:30:44;;;;;;;10.32;6.03;;;21.50;99.90;;;;;;5089753;28;20044;-79
2023/09/29 07:33:11;;;;;;;9.82;5.55;;;21.60;99.90;;;;;;5073729;28;20048;-75
2023/09/29 07:35:37;;;;;;;14.50;6.65;;;21.60;99.90;;;;;;5056523;28;20574;-78
2023/09/29 07:38:04;;;;;;;10.05;6.05;;;21.70;99.90;;;;;;5072676;28;20450;-77
2023/09/29 07:40:31;;;;;;;9.05;6.07;;;21.70;99.90;;;;;;5072730;28;20044;-74
2023/09/29 07:42:57;;;;;;;10.43;6.07;;;21.70;99.90;;;;;;5092676;28;20131;-76
2023/09/29 07:45:23;;;;;;;10.82;6.00;;;21.70;99.90;;;;;;5089718;28;20086;-77
2023/09/29 07:47:49;;;;;;;12.98;5.93;;;21.80;99.90;;;;;;5088819;28;20076;-76
2023/09/29 07:50:15;;;;;;;10.88;5.68;;;21.90;99.90;;;;;;5089532;28;20085;-74
2023/09/29 07:52:40;;;;;;;11.52;5.50;;;22.00;99.90;;;;;;5089674;28;20548;-75
2023/09/29 07:55:07;;;;;;;13.93;6.40;;;22.00;99.90;;;;;;5073007;28;20072;-74
2023/09/29 07:57:33;;;;;;;8.13;5.22;;;22.10;99.90;;;;;;5089665;28;20036;-79
2023/09/29 07:59:59;;;;;;;10.73;6.10;;;22.20;99.90;;;;;;5071662;28;20043;-74
2023/09/29 08:02:26;;;;;;;8.80;5.32;;;22.30;99.90;;;;;;5054834;28;20636;-74
2023/09/29 08:04:52;;;;;;;10.52;5.18;;;22.40;99.90;;;;;;5088044;28;20048;-78
2023/09/29 08:07:19;;;;;;;8.25;4.53;;;22.60;99.90;;;;;;5087709;28;20071;-74
2023/09/29 08:09:45;;;;;;;9.38;5.45;;;22.70;99.90;;;;;;5071062;28;20157;-75
2023/09/29 08:12:11;;;;;;;10.45;5.30;;;22.70;99.90;;;;;;5071165;28;20403;-77
2023/09/29 08:14:37;;;;;;;8.95;4.47;;;22.80;99.90;;;;;;5072453;28;20047;-78
2023/09/29 08:17:02;;;;;;;5.30;4.13;;;22.90;99.90;;;;;;5087848;28;20500;-77
2023/09/29 08:19:29;;;;;;;7.15;4.47;;;23.00;99.90;;;;;;5071078;28;20048;-74
2023/09/29 08:21:55;;;;;;;7.93;4.18;;;23.10;99.90;;;;;;5071566;28;20404;-77
2023/09/29 08:24:22;;;;;;;7.47;4.28;;;23.20;99.90;;;;;;5071140;28;20044;-78
2023/09/29 08:26:47;;;;;;;7.28;4.45;;;23.20;99.90;;;;;;5071709;28;20048;-75
2023/09/29 08:29:16;;;;;;;7.47;4.32;;;23.30;99.90;;;;;;5066797;28;20038;-73
2023/09/29 08:31:43;;;;;;;8.65;4.25;;;23.20;99.90;;;;;;5092786;28;20039;-78
2023/09/29 08:34:09;;;;;;;6.50;4.05;;;23.40;99.90;;;;;;5092560;28;20031;-77
2023/09/29 08:36:35;;;;;;;7.25;4.07;;;23.40;99.90;;;;;;5076842;28;20056;-76
2023/09/29 08:39:01;;;;;;;6.55;4.20;;;23.50;99.90;;;;;;5072302;28;20052;-78
2023/09/29 08:41:28;;;;;;;5.07;3.60;;;23.60;99.90;;;;;;5072319;28;20044;-79
2023/09/29 08:43:55;;;;;;;7.93;4.30;;;23.60;99.90;;;;;;5072114;28;20730;-77
2023/09/29 08:46:21;;;;;;;7.00;4.30;;;23.70;99.90;;;;;;5089122;28;20052;-76
2023/09/29 08:48:48;;;;;;;5.18;3.47;;;23.80;99.90;;;;;;5071716;28;20075;-78
2023/09/29 08:51:17;;;;;;;7.18;4.28;;;23.80;99.90;;;;;;5077030;28;20619;-76
2023/09/29 08:53:44;;;;;;;4.82;3.53;;;23.90;99.90;;;;;;5092661;28;20040;-77
2023/09/29 08:56:16;;;;;;;5.35;3.50;;;24.00;99.90;;;;;;5103698;28;20044;-77
2023/09/29 08:58:42;;;;;;;7.05;3.92;;;24.00;99.90;;;;;;5090289;28;20039;-76
2023/09/29 09:01:11;;;;;;;5.57;3.72;;;24.10;99.90;;;;;;5092886;28;20094;-73
2023/09/29 09:03:37;;;;;;;5.60;3.50;;;24.30;99.90;;;;;;5092527;28;20105;-76
2023/09/29 09:06:21;;;;;;;7.63;3.80;;;24.40;99.90;;;;;;5093413;28;20161;-76
2023/09/29 09:08:48;;;;;;;6.33;3.60;;;24.40;99.90;;;;;;5108558;28;20047;-74
2023/09/29 09:11:13;;;;;;;4.30;3.58;;;24.50;99.90;;;;;;5062211;28;20036;-75
2023/09/29 09:13:40;;;;;;;5.05;3.05;;;24.60;99.90;;;;;;5095802;28;20046;-78
2023/09/29 09:16:07;;;;;;;5.28;3.22;;;24.60;99.90;;;;;;5095831;28;20047;-76
2023/09/29 09:18:32;;;;;;;5.00;3.42;;;24.50;99.90;;;;;;5075928;28;20036;-77
2023/09/29 09:20:58;;;;;;;5.93;3.03;;;24.50;99.90;;;;;;5075532;28;20361;-76
2023/09/29 09:23:24;;;;;;;5.47;3.30;;;24.40;99.90;;;;;;5075395;28;20078;-78
2023/09/29 09:25:51;;;;;;;6.22;3.72;;;24.50;99.90;;;;;;5075068;28;20080;-76
2023/09/29 09:28:22;;;;;;;9.90;3.53;;;24.50;99.90;;;;;;5092170;28;20651;-78
2023/09/29 09:30:59;;;;;;;6.13;3.50;;;24.50;99.90;;;;;;5058972;28;20093;-79
2023/09/29 09:33:27;;;;;;;6.95;3.38;;;24.70;99.90;;;;;;5075428;28;20043;-77
2023/09/29 09:36:05;;;;;;;4.30;3.05;;;24.80;99.90;;;;;;5075225;28;20449;-74
2023/09/29 09:38:32;;;;;;;6.45;3.08;;;25.00;99.90;;;;;;5092259;28;20052;-78
2023/09/29 09:41:00;;;;;;;3.70;2.83;;;25.20;99.90;;;;;;5080913;28;20044;-78
2023/09/29 09:43:28;;;;;;;5.57;3.28;;;25.30;99.90;;;;;;5112466;28;20043;-75
2023/09/29 09:46:03;;;;;;;8.90;3.55;;;25.40;99.90;;;;;;5112220;28;20152;-80
2023/09/29 09:48:36;;;;;;;7.63;3.13;;;25.50;99.90;;;;;;5085714;28;20040;-77
2023/09/29 09:51:03;;;;;;;5.03;2.78;;;25.60;99.90;;;;;;5092573;28;20443;-76
2023/09/29 09:53:33;;;;;;;4.20;2.90;;;25.80;99.90;;;;;;5092340;28;20039;-75
2023/09/29 09:56:04;;;;;;;3.25;2.80;;;25.90;99.90;;;;;;5107436;28;20399;-75
2023/09/29 09:58:31;;;;;;;5.70;3.00;;;25.90;99.90;;;;;;5112042;28;20039;-77
2023/09/29 10:00:57;;;;;;;4.55;3.00;;;26.00;99.90;;;;;;5094619;28;20046;-75
2023/09/29 10:03:25;;;;;;;5.57;2.65;;;25.90;99.90;;;;;;5095209;28;20040;-78
2023/09/29 10:05:53;;;;;;;4.22;3.15;;;25.70;99.90;;;;;;5111080;28;20133;-78
2023/09/29 10:08:30;;;;;;;3.78;2.70;;;25.80;99.90;;;;;;5078242;28;20164;-79
2023/09/29 10:11:11;;;;;;;4.80;2.85;;;25.70;99.90;;;;;;5102880;28;20071;-75
2023/09/29 10:13:37;;;;;;;6.60;3.05;;;25.80;99.90;;;;;;5074399;28;20039;-78
2023/09/29 10:16:05;;;;;;;5.97;3.10;;;25.80;99.90;;;;;;5081763;28;20050;-76
2023/09/29 10:18:33;;;;;;;6.40;3.25;;;25.80;99.90;;;;;;5075009;28;20043;-75
2023/09/29 10:21:06;;;;;;;4.82;3.10;;;25.80;99.90;;;;;;5091682;28;20444;-78
2023/09/29 10:23:49;;;;;;;4.25;2.92;;;25.80;99.90;;;;;;5091626;28;20071;-74
2023/09/29 10:26:15;;;;;;;5.47;3.25;;;25.80;99.90;;;;;;5100435;28;20754;-73
2023/09/29 10:28:41;;;;;;;5.78;3.42;;;25.90;99.90;;;;;;5094840;28;20039;-75
2023/09/29 10:31:08;;;;;;;7.38;3.28;;;25.90;99.90;;;;;;5088136;28;20039;-77
2023/09/29 10:33:54;;;;;;;6.25;3.55;;;25.90;99.90;;;;;;5091337;28;20174;-74
2023/09/29 10:36:23;;;;;;;5.53;3.70;;;25.80;99.90;;;;;;5058511;28;20063;-77
2023/09/29 10:38:50;;;;;;;6.22;3.75;;;25.80;99.90;;;;;;5090706;28;20472;-77
2023/09/29 10:41:16;;;;;;;6.72;3.20;;;25.70;99.90;;;;;;5074636;28;20376;-75
2023/09/29 10:43:43;;;;;;;6.28;3.58;;;25.70;99.90;;;;;;5073777;28;20125;-78
2023/09/29 10:46:09;;;;;;;7.13;3.70;;;25.70;99.90;;;;;;5076301;28;20169;-76
2023/09/29 10:48:45;;;;;;;5.32;3.63;;;25.70;99.90;;;;;;5094313;28;20043;-74
2023/09/29 10:51:20;;;;;;;7.30;3.80;;;25.60;99.90;;;;;;5077502;28;20177;-75
2023/09/29 10:53:46;;;;;;;5.55;3.40;;;25.50;99.90;;;;;;5094210;28;20122;-77
2023/09/29 10:56:11;;;;;;;5.40;3.58;;;25.40;99.90;;;;;;5110505;28;20122;-77
2023/09/29 10:58:38;;;;;;;7.10;3.70;;;25.40;99.90;;;;;;5090867;28;20039;-77
2023/09/29 11:01:04;;;;;;;4.68;3.55;;;25.30;99.90;;;;;;5063740;28;20488;-74
2023/09/29 11:03:30;;;;;;;5.25;3.70;;;25.20;99.90;;;;;;5057063;28;20047;-80
2023/09/29 11:06:08;;;;;;;4.90;3.72;;;25.10;99.90;;;;;;5073326;28;20040;-76
2023/09/29 11:08:43;;;;;;;5.60;3.53;;;25.00;99.90;;;;;;5075041;28;20031;-75
2023/09/29 11:11:09;;;;;;;8.38;4.15;;;25.10;99.90;;;;;;5109305;28;20223;-76
2023/09/29 11:13:37;;;;;;;5.10;3.90;;;25.10;99.90;;;;;;5093627;28;20040;-76
2023/09/29 11:16:15;;;;;;;5.80;3.92;;;25.10;99.90;;;;;;5107869;28;20044;-78
2023/09/29 11:18:41;;;;;;;8.75;4.20;;;25.20;99.90;;;;;;5108015;28;20063;-78
2023/09/29 11:21:11;;;;;;;6.10;4.15;;;25.20;99.90;;;;;;5111004;28;20476;-81
2023/09/29 11:23:47;;;;;;;8.13;4.63;;;25.20;99.90;;;;;;5110505;28;20050;-79
2023/09/29 11:26:15;;;;;;;6.90;3.80;;;25.30;99.90;;;;;;5110244;28;20044;-79
2023/09/29 11:28:48;;;;;;;7.80;3.97;;;25.20;99.90;;;;;;5094323;28;20407;-78
2023/09/29 11:31:17;;;;;;;4.85;3.45;;;25.20;99.90;;;;;;5090291;28;20039;-76
2023/09/29 11:33:44;;;;;;;6.20;3.97;;;25.10;99.90;;;;;;5090748;28;20032;-78
2023/09/29 11:36:14;;;;;;;7.05;3.83;;;25.10;99.90;;;;;;5073461;28;20454;-76
2023/09/29 11:38:40;;;;;;;5.07;3.95;;;25.10;99.90;;;;;;5102740;28;20059;-76
2023/09/29 11:41:06;;;;;;;6.50;4.22;;;25.10;99.90;;;;;;5106966;28;20036;-75
2023/09/29 11:43:33;;;;;;;9.15;4.28;;;25.00;99.90;;;;;;5095289;28;20482;-79
2023/09/29 11:45:59;;;;;;;7.47;4.25;;;25.10;99.90;;;;;;5109524;28;20153;-73
2023/09/29 11:48:25;;;;;;;7.18;4.28;;;24.90;99.90;;;;;;5092737;28;20403;-79
2023/09/29 11:50:52;;;;;;;8.88;4.78;;;24.90;99.90;;;;;;5109525;28;20047;-80
2023/09/29 11:53:18;;;;;;;8.95;4.80;;;24.80;99.90;;;;;;5085743;28;20437;-73
2023/09/29 11:55:44;;;;;;;8.90;4.45;;;24.90;99.90;;;;;;5108825;28;20047;-76
2023/09/29 11:58:09;;;;;;;5.80;4.43;;;24.70;99.90;;;;;;5091967;28;20051;-76
2023/09/29 12:00:36;;;;;;;6.35;4.57;;;24.60;99.90;;;;;;5091364;28;20036;-78
2023/09/29 12:03:05;;;;;;;6.75;5.10;;;24.60;99.90;;;;;;5095985;28;20471;-79
2023/09/29 12:05:32;;;;;;;8.05;5.13;;;24.50;99.90;;;;;;5088340;28;20040;-75
2023/09/29 12:07:58;;;;;;;9.95;5.57;;;24.50;99.90;;;;;;5054641;28;20040;-73
2023/09/29 12:10:24;;;;;;;6.65;5.93;;;24.50;99.90;;;;;;5088630;28;20047;-76
2023/09/29 12:12:50;;;;;;;9.68;5.85;;;24.50;99.90;;;;;;5074578;28;20040;-75
2023/09/29 12:15:17;;;;;;;10.65;5.90;;;24.50;99.90;;;;;;5072693;28;20391;-74
2023/09/29 12:17:44;;;;;;;11.70;6.07;;;24.40;99.90;;;;;;5089154;28;20081;-77
2023/09/29 12:20:13;;;;;;;10.23;6.32;;;24.30;99.90;;;;;;5088648;28;20048;-79
2023/09/29 12:22:43;;;;;;;8.43;5.60;;;24.40;99.90;;;;;;5089235;28;20451;-76
2023/09/29 12:25:14;;;;;;;10.90;6.20;;;24.30;99.90;;;;;;5072548;28;20073;-73
2023/09/29 12:27:44;;;;;;;10.95;6.10;;;24.20;99.90;;;;;;5071999;28;20043;-77
2023/09/29 12:30:14;;;;;;;10.25;6.25;;;24.40;99.90;;;;;;5089069;28;20059;-78
2023/09/29 12:32:41;;;;;;;5.03;3.10;;;24.30;99.90;;;;;;5094194;28;20119;-76
2023/09/29 12:35:09;;;;;;;3.40;1.90;;;24.00;99.90;;;;;;5100416;28;20066;-75
2023/09/29 12:37:37;;;;;;;2.97;1.40;;;23.40;99.90;;;;;;5090752;28;20059;-76
2023/09/29 12:40:04;;;;;;;3.92;1.10;;;23.00;99.90;;;;;;5100309;28;20048;-76
2023/09/29 12:42:31;;;;;;;2.40;0.88;;;22.70;99.90;;;;;;5080505;28;20097;-80